sensor_id;sensor_type;location;lat;lon;timestamp;P1;durP1;ratioP1;P2;durP2;ratioP2
75603;SDS011;64187;51.010;13.792;2023-03-07T00:00:45;14.38;;;7.13;;
75603;SDS011;64187;51.010;13.792;2023-03-07T00:05:44;17.17;;;7.63;;
75603;SDS011;64187;51.010;13.792;2023-03-07T00:10:42;16.88;;;7.80;;
75603;SDS011;64187;51.010;13.792;2023-03-07T00:15:41;19.75;;;7.68;;
75603;SDS011;64187;51.010;13.792;2023-03-07T00:20:40;13.07;;;6.55;;
75603;SDS011;64187;51.010;13.792;2023-03-07T00:25:39;15.20;;;7.43;;
75603;SDS011;64187;51.010;13.792;2023-03-07T00:30:38;14.60;;;6.90;;
75603;SDS011;64187;51.010;13.792;2023-03-07T00:35:36;13.80;;;6.70;;
75603;SDS011;64187;51.010;13.792;2023-03-07T00:40:35;14.00;;;6.78;;
75603;SDS011;64187;51.010;13.792;2023-03-07T00:45:34;16.85;;;8.23;;
75603;SDS011;64187;51.010;13.792;2023-03-07T00:50:33;14.05;;;7.25;;
75603;SDS011;64187;51.010;13.792;2023-03-07T00:55:32;14.32;;;7.65;;
75603;SDS011;64187;51.010;13.792;2023-03-07T01:00:31;16.20;;;7.72;;
75603;SDS011;64187;51.010;13.792;2023-03-07T01:05:30;13.90;;;7.15;;
75603;SDS011;64187;51.010;13.792;2023-03-07T01:10:29;13.52;;;7.00;;
75603;SDS011;64187;51.010;13.792;2023-03-07T01:15:30;15.00;;;7.05;;
75603;SDS011;64187;51.010;13.792;2023-03-07T01:20:30;15.27;;;7.20;;
75603;SDS011;64187;51.010;13.792;2023-03-07T01:25:30;13.77;;;6.90;;
75603;SDS011;64187;51.010;13.792;2023-03-07T01:30:29;15.13;;;7.03;;
75603;SDS011;64187;51.010;13.792;2023-03-07T01:35:28;16.30;;;7.57;;
75603;SDS011;64187;51.010;13.792;2023-03-07T01:40:28;14.60;;;7.30;;
75603;SDS011;64187;51.010;13.792;2023-03-07T01:50:33;15.85;;;7.75;;
75603;SDS011;64187;51.010;13.792;2023-03-07T01:55:32;13.70;;;7.43;;
75603;SDS011;64187;51.010;13.792;2023-03-07T02:00:41;14.07;;;7.38;;
75603;SDS011;64187;51.010;13.792;2023-03-07T02:05:46;16.60;;;7.63;;
75603;SDS011;64187;51.010;13.792;2023-03-07T02:10:48;13.40;;;6.72;;
75603;SDS011;64187;51.010;13.792;2023-03-07T02:15:48;14.20;;;6.60;;
75603;SDS011;64187;51.010;13.792;2023-03-07T02:25:55;16.42;;;7.82;;
75603;SDS011;64187;51.010;13.792;2023-03-07T02:31:05;14.75;;;7.63;;
75603;SDS011;64187;51.010;13.792;2023-03-07T02:36:08;20.00;;;8.63;;
75603;SDS011;64187;51.010;13.792;2023-03-07T02:41:19;14.60;;;7.88;;
75603;SDS011;64187;51.010;13.792;2023-03-07T02:46:21;14.20;;;7.10;;
75603;SDS011;64187;51.010;13.792;2023-03-07T02:51:20;14.05;;;6.57;;
75603;SDS011;64187;51.010;13.792;2023-03-07T02:56:19;13.20;;;7.43;;
75603;SDS011;64187;51.010;13.792;2023-03-07T03:01:18;13.32;;;7.88;;
75603;SDS011;64187;51.010;13.792;2023-03-07T03:06:18;13.32;;;7.15;;
75603;SDS011;64187;51.010;13.792;2023-03-07T03:11:17;14.20;;;6.80;;
75603;SDS011;64187;51.010;13.792;2023-03-07T03:16:15;15.38;;;7.32;;
75603;SDS011;64187;51.010;13.792;2023-03-07T03:21:14;15.38;;;6.78;;
75603;SDS011;64187;51.010;13.792;2023-03-07T03:26:13;15.65;;;7.03;;
75603;SDS011;64187;51.010;13.792;2023-03-07T03:31:12;13.48;;;6.82;;
75603;SDS011;64187;51.010;13.792;2023-03-07T03:36:15;13.55;;;7.55;;
75603;SDS011;64187;51.010;13.792;2023-03-07T03:41:17;12.68;;;7.38;;
75603;SDS011;64187;51.010;13.792;2023-03-07T03:46:18;14.05;;;7.15;;
75603;SDS011;64187;51.010;13.792;2023-03-07T03:51:17;14.80;;;7.40;;
75603;SDS011;64187;51.010;13.792;2023-03-07T03:56:18;13.30;;;7.00;;
75603;SDS011;64187;51.010;13.792;2023-03-07T04:01:19;11.73;;;6.22;;
75603;SDS011;64187;51.010;13.792;2023-03-07T04:06:21;15.75;;;7.53;;
75603;SDS011;64187;51.010;13.792;2023-03-07T04:11:22;14.93;;;7.07;;
75603;SDS011;64187;51.010;13.792;2023-03-07T04:16:22;13.35;;;6.90;;
75603;SDS011;64187;51.010;13.792;2023-03-07T04:21:21;11.63;;;6.45;;
75603;SDS011;64187;51.010;13.792;2023-03-07T04:26:22;12.90;;;6.03;;
75603;SDS011;64187;51.010;13.792;2023-03-07T04:31:23;13.23;;;7.65;;
75603;SDS011;64187;51.010;13.792;2023-03-07T04:36:24;13.52;;;6.35;;
75603;SDS011;64187;51.010;13.792;2023-03-07T04:41:23;13.65;;;6.55;;
75603;SDS011;64187;51.010;13.792;2023-03-07T04:46:46;16.25;;;8.27;;
75603;SDS011;64187;51.010;13.792;2023-03-07T04:51:44;16.15;;;8.25;;
75603;SDS011;64187;51.010;13.792;2023-03-07T04:56:46;16.60;;;7.90;;
75603;SDS011;64187;51.010;13.792;2023-03-07T05:01:45;15.88;;;8.55;;
75603;SDS011;64187;51.010;13.792;2023-03-07T05:06:44;14.27;;;8.23;;
75603;SDS011;64187;51.010;13.792;2023-03-07T05:11:44;17.35;;;8.82;;
75603;SDS011;64187;51.010;13.792;2023-03-07T05:16:43;18.35;;;8.75;;
75603;SDS011;64187;51.010;13.792;2023-03-07T05:21:42;15.52;;;8.75;;
75603;SDS011;64187;51.010;13.792;2023-03-07T05:26:42;16.13;;;8.43;;
75603;SDS011;64187;51.010;13.792;2023-03-07T05:31:40;27.42;;;11.50;;
75603;SDS011;64187;51.010;13.792;2023-03-07T05:36:40;13.65;;;7.78;;
75603;SDS011;64187;51.010;13.792;2023-03-07T05:41:39;16.77;;;8.25;;
75603;SDS011;64187;51.010;13.792;2023-03-07T05:46:40;13.70;;;8.07;;
75603;SDS011;64187;51.010;13.792;2023-03-07T05:51:39;14.20;;;8.20;;
75603;SDS011;64187;51.010;13.792;2023-03-07T05:56:38;15.45;;;7.72;;
75603;SDS011;64187;51.010;13.792;2023-03-07T06:01:37;17.95;;;9.32;;
75603;SDS011;64187;51.010;13.792;2023-03-07T06:06:36;15.45;;;6.72;;
75603;SDS011;64187;51.010;13.792;2023-03-07T06:11:36;11.43;;;5.40;;
75603;SDS011;64187;51.010;13.792;2023-03-07T06:16:35;11.15;;;5.47;;
75603;SDS011;64187;51.010;13.792;2023-03-07T06:21:35;12.40;;;5.88;;
75603;SDS011;64187;51.010;13.792;2023-03-07T06:26:34;10.32;;;5.55;;
75603;SDS011;64187;51.010;13.792;2023-03-07T06:31:34;11.43;;;6.45;;
75603;SDS011;64187;51.010;13.792;2023-03-07T06:36:33;12.57;;;5.97;;
75603;SDS011;64187;51.010;13.792;2023-03-07T06:41:32;12.75;;;5.32;;
75603;SDS011;64187;51.010;13.792;2023-03-07T06:46:33;12.10;;;5.50;;
75603;SDS011;64187;51.010;13.792;2023-03-07T06:51:38;10.98;;;4.35;;
75603;SDS011;64187;51.010;13.792;2023-03-07T06:56:38;10.52;;;5.40;;
75603;SDS011;64187;51.010;13.792;2023-03-07T07:01:37;10.25;;;5.13;;
75603;SDS011;64187;51.010;13.792;2023-03-07T07:06:36;11.55;;;5.53;;
75603;SDS011;64187;51.010;13.792;2023-03-07T07:11:35;11.82;;;5.85;;
75603;SDS011;64187;51.010;13.792;2023-03-07T07:16:35;9.98;;;5.30;;
75603;SDS011;64187;51.010;13.792;2023-03-07T07:21:35;13.15;;;5.65;;
75603;SDS011;64187;51.010;13.792;2023-03-07T07:26:34;9.23;;;5.05;;
75603;SDS011;64187;51.010;13.792;2023-03-07T07:31:33;8.82;;;4.55;;
75603;SDS011;64187;51.010;13.792;2023-03-07T07:36:33;8.38;;;4.45;;
75603;SDS011;64187;51.010;13.792;2023-03-07T07:41:33;9.02;;;4.78;;
75603;SDS011;64187;51.010;13.792;2023-03-07T07:46:32;8.20;;;4.28;;
75603;SDS011;64187;51.010;13.792;2023-03-07T07:51:33;10.13;;;4.47;;
75603;SDS011;64187;51.010;13.792;2023-03-07T07:56:32;9.32;;;4.72;;
75603;SDS011;64187;51.010;13.792;2023-03-07T08:01:31;7.18;;;3.85;;
75603;SDS011;64187;51.010;13.792;2023-03-07T08:06:30;9.07;;;4.72;;
75603;SDS011;64187;51.010;13.792;2023-03-07T08:11:29;8.77;;;4.22;;
75603;SDS011;64187;51.010;13.792;2023-03-07T08:16:28;7.63;;;4.10;;
75603;SDS011;64187;51.010;13.792;2023-03-07T08:21:27;8.93;;;3.97;;
75603;SDS011;64187;51.010;13.792;2023-03-07T08:26:26;8.57;;;3.78;;
75603;SDS011;64187;51.010;13.792;2023-03-07T08:31:25;7.75;;;3.30;;
75603;SDS011;64187;51.010;13.792;2023-03-07T08:36:24;7.22;;;3.70;;
75603;SDS011;64187;51.010;13.792;2023-03-07T08:41:23;7.35;;;3.63;;
75603;SDS011;64187;51.010;13.792;2023-03-07T08:46:22;7.10;;;4.43;;
75603;SDS011;64187;51.010;13.792;2023-03-07T08:51:21;6.20;;;3.85;;
75603;SDS011;64187;51.010;13.792;2023-03-07T08:56:20;6.15;;;3.08;;
75603;SDS011;64187;51.010;13.792;2023-03-07T09:01:19;6.88;;;3.53;;
75603;SDS011;64187;51.010;13.792;2023-03-07T09:06:19;5.47;;;2.85;;
75603;SDS011;64187;51.010;13.792;2023-03-07T09:11:18;4.78;;;2.83;;
75603;SDS011;64187;51.010;13.792;2023-03-07T09:16:19;5.10;;;2.95;;
75603;SDS011;64187;51.010;13.792;2023-03-07T09:21:19;5.43;;;2.67;;
75603;SDS011;64187;51.010;13.792;2023-03-07T09:26:21;5.65;;;3.28;;
75603;SDS011;64187;51.010;13.792;2023-03-07T09:31:23;5.93;;;2.92;;
75603;SDS011;64187;51.010;13.792;2023-03-07T09:36:23;5.85;;;3.15;;
75603;SDS011;64187;51.010;13.792;2023-03-07T09:52:42;6.05;;;3.25;;
75603;SDS011;64187;51.010;13.792;2023-03-07T09:57:54;5.32;;;3.15;;
75603;SDS011;64187;51.010;13.792;2023-03-07T10:08:27;5.38;;;3.60;;
75603;SDS011;64187;51.010;13.792;2023-03-07T10:13:41;6.22;;;3.30;;
75603;SDS011;64187;51.010;13.792;2023-03-07T10:19:04;5.72;;;3.15;;
75603;SDS011;64187;51.010;13.792;2023-03-07T10:24:28;6.38;;;3.08;;
75603;SDS011;64187;51.010;13.792;2023-03-07T10:29:46;6.28;;;3.83;;
75603;SDS011;64187;51.010;13.792;2023-03-07T10:34:50;6.13;;;3.65;;
75603;SDS011;64187;51.010;13.792;2023-03-07T10:39:55;6.18;;;3.47;;
75603;SDS011;64187;51.010;13.792;2023-03-07T10:44:54;7.68;;;4.07;;
75603;SDS011;64187;51.010;13.792;2023-03-07T10:49:55;4.50;;;3.22;;
75603;SDS011;64187;51.010;13.792;2023-03-07T11:00:28;7.85;;;3.78;;
75603;SDS011;64187;51.010;13.792;2023-03-07T11:10:34;5.97;;;3.67;;
75603;SDS011;64187;51.010;13.792;2023-03-07T11:15:37;6.03;;;3.45;;
75603;SDS011;64187;51.010;13.792;2023-03-07T11:20:49;5.45;;;3.28;;
75603;SDS011;64187;51.010;13.792;2023-03-07T11:25:49;5.88;;;3.67;;
75603;SDS011;64187;51.010;13.792;2023-03-07T11:30:51;5.13;;;3.28;;
75603;SDS011;64187;51.010;13.792;2023-03-07T11:56:52;5.95;;;3.28;;
75603;SDS011;64187;51.010;13.792;2023-03-07T12:01:57;6.03;;;3.33;;
75603;SDS011;64187;51.010;13.792;2023-03-07T12:07:22;5.35;;;3.70;;
75603;SDS011;64187;51.010;13.792;2023-03-07T12:23:16;6.90;;;3.45;;
75603;SDS011;64187;51.010;13.792;2023-03-07T12:33:24;8.00;;;4.10;;
75603;SDS011;64187;51.010;13.792;2023-03-07T12:38:40;8.63;;;3.42;;
75603;SDS011;64187;51.010;13.792;2023-03-07T12:43:45;6.78;;;3.50;;
75603;SDS011;64187;51.010;13.792;2023-03-07T12:48:53;6.85;;;3.78;;
75603;SDS011;64187;51.010;13.792;2023-03-07T12:54:02;7.35;;;4.00;;
75603;SDS011;64187;51.010;13.792;2023-03-07T12:59:12;6.88;;;3.47;;
75603;SDS011;64187;51.010;13.792;2023-03-07T13:04:14;6.72;;;3.58;;
75603;SDS011;64187;51.010;13.792;2023-03-07T13:09:35;6.15;;;3.45;;
75603;SDS011;64187;51.010;13.792;2023-03-07T13:14:38;5.65;;;3.25;;
75603;SDS011;64187;51.010;13.792;2023-03-07T13:19:49;5.95;;;3.42;;
75603;SDS011;64187;51.010;13.792;2023-03-07T13:24:53;5.90;;;3.65;;
75603;SDS011;64187;51.010;13.792;2023-03-07T13:35:08;5.93;;;3.50;;
75603;SDS011;64187;51.010;13.792;2023-03-07T13:40:20;6.20;;;3.47;;
75603;SDS011;64187;51.010;13.792;2023-03-07T13:55:38;7.10;;;3.92;;
75603;SDS011;64187;51.010;13.792;2023-03-07T14:00:58;5.38;;;3.22;;
75603;SDS011;64187;51.010;13.792;2023-03-07T14:05:58;4.93;;;3.15;;
75603;SDS011;64187;51.010;13.792;2023-03-07T14:11:00;5.88;;;3.63;;
75603;SDS011;64187;51.010;13.792;2023-03-07T14:21:11;5.32;;;3.40;;
75603;SDS011;64187;51.010;13.792;2023-03-07T14:26:34;6.50;;;3.63;;
75603;SDS011;64187;51.010;13.792;2023-03-07T14:31:37;6.00;;;3.15;;
75603;SDS011;64187;51.010;13.792;2023-03-07T14:36:38;5.95;;;3.22;;
75603;SDS011;64187;51.010;13.792;2023-03-07T14:41:40;5.70;;;3.42;;
75603;SDS011;64187;51.010;13.792;2023-03-07T14:52:03;5.20;;;2.88;;
75603;SDS011;64187;51.010;13.792;2023-03-07T14:57:02;5.60;;;3.38;;
75603;SDS011;64187;51.010;13.792;2023-03-07T15:02:01;7.03;;;3.42;;
75603;SDS011;64187;51.010;13.792;2023-03-07T15:07:01;6.53;;;3.00;;
75603;SDS011;64187;51.010;13.792;2023-03-07T15:17:18;4.85;;;2.25;;
75603;SDS011;64187;51.010;13.792;2023-03-07T15:22:23;5.72;;;2.70;;
75603;SDS011;64187;51.010;13.792;2023-03-07T15:27:26;5.57;;;2.67;;
75603;SDS011;64187;51.010;13.792;2023-03-07T15:42:57;4.55;;;2.13;;
75603;SDS011;64187;51.010;13.792;2023-03-07T15:53:37;6.03;;;2.60;;
75603;SDS011;64187;51.010;13.792;2023-03-07T15:58:39;4.68;;;2.38;;
75603;SDS011;64187;51.010;13.792;2023-03-07T16:03:52;4.05;;;2.03;;
75603;SDS011;64187;51.010;13.792;2023-03-07T16:08:53;4.90;;;2.42;;
75603;SDS011;64187;51.010;13.792;2023-03-07T16:13:52;4.50;;;2.53;;
75603;SDS011;64187;51.010;13.792;2023-03-07T16:18:57;4.40;;;2.65;;
75603;SDS011;64187;51.010;13.792;2023-03-07T16:23:56;4.90;;;2.70;;
75603;SDS011;64187;51.010;13.792;2023-03-07T16:28:55;5.07;;;2.72;;
75603;SDS011;64187;51.010;13.792;2023-03-07T16:33:54;4.93;;;3.33;;
75603;SDS011;64187;51.010;13.792;2023-03-07T16:38:53;6.78;;;2.88;;
75603;SDS011;64187;51.010;13.792;2023-03-07T16:43:53;7.05;;;2.92;;
75603;SDS011;64187;51.010;13.792;2023-03-07T16:48:54;4.05;;;3.28;;
75603;SDS011;64187;51.010;13.792;2023-03-07T16:53:53;8.07;;;3.35;;
75603;SDS011;64187;51.010;13.792;2023-03-07T16:58:54;4.10;;;2.78;;
75603;SDS011;64187;51.010;13.792;2023-03-07T17:03:53;5.15;;;2.58;;
75603;SDS011;64187;51.010;13.792;2023-03-07T17:08:54;5.35;;;3.30;;
75603;SDS011;64187;51.010;13.792;2023-03-07T17:13:53;7.35;;;2.88;;
75603;SDS011;64187;51.010;13.792;2023-03-07T17:18:56;8.32;;;2.63;;
75603;SDS011;64187;51.010;13.792;2023-03-07T17:23:55;3.55;;;2.17;;
75603;SDS011;64187;51.010;13.792;2023-03-07T17:28:54;5.15;;;2.92;;
75603;SDS011;64187;51.010;13.792;2023-03-07T17:33:55;5.25;;;2.88;;
75603;SDS011;64187;51.010;13.792;2023-03-07T17:38:55;3.00;;;1.77;;
75603;SDS011;64187;51.010;13.792;2023-03-07T17:43:54;3.38;;;1.70;;
75603;SDS011;64187;51.010;13.792;2023-03-07T17:48:53;4.43;;;1.83;;
75603;SDS011;64187;51.010;13.792;2023-03-07T17:53:52;2.97;;;1.73;;
75603;SDS011;64187;51.010;13.792;2023-03-07T17:58:51;2.70;;;1.83;;
75603;SDS011;64187;51.010;13.792;2023-03-07T18:03:52;1.95;;;1.30;;
75603;SDS011;64187;51.010;13.792;2023-03-07T18:08:51;3.60;;;1.67;;
75603;SDS011;64187;51.010;13.792;2023-03-07T18:13:51;3.35;;;1.65;;
75603;SDS011;64187;51.010;13.792;2023-03-07T18:18:50;2.75;;;1.80;;
75603;SDS011;64187;51.010;13.792;2023-03-07T18:23:58;2.45;;;1.55;;
75603;SDS011;64187;51.010;13.792;2023-03-07T18:28:56;3.28;;;1.88;;
75603;SDS011;64187;51.010;13.792;2023-03-07T18:33:56;3.60;;;1.88;;
75603;SDS011;64187;51.010;13.792;2023-03-07T18:38:55;3.08;;;1.70;;
75603;SDS011;64187;51.010;13.792;2023-03-07T18:43:55;3.58;;;1.77;;
75603;SDS011;64187;51.010;13.792;2023-03-07T18:48:55;3.72;;;1.83;;
75603;SDS011;64187;51.010;13.792;2023-03-07T18:53:58;3.78;;;2.05;;
75603;SDS011;64187;51.010;13.792;2023-03-07T18:58:58;4.35;;;2.35;;
75603;SDS011;64187;51.010;13.792;2023-03-07T19:03:57;2.67;;;1.50;;
75603;SDS011;64187;51.010;13.792;2023-03-07T19:09:00;4.13;;;2.20;;
75603;SDS011;64187;51.010;13.792;2023-03-07T19:14:01;3.67;;;1.90;;
75603;SDS011;64187;51.010;13.792;2023-03-07T19:19:00;3.42;;;2.15;;
75603;SDS011;64187;51.010;13.792;2023-03-07T19:23:59;2.78;;;2.05;;
75603;SDS011;64187;51.010;13.792;2023-03-07T19:28:59;3.38;;;1.85;;
75603;SDS011;64187;51.010;13.792;2023-03-07T19:33:58;3.00;;;1.83;;
75603;SDS011;64187;51.010;13.792;2023-03-07T19:39:00;3.40;;;1.88;;
75603;SDS011;64187;51.010;13.792;2023-03-07T19:44:01;2.72;;;1.70;;
75603;SDS011;64187;51.010;13.792;2023-03-07T19:49:01;4.20;;;1.55;;
75603;SDS011;64187;51.010;13.792;2023-03-07T19:54:00;2.38;;;1.92;;
75603;SDS011;64187;51.010;13.792;2023-03-07T19:59:04;2.22;;;1.50;;
75603;SDS011;64187;51.010;13.792;2023-03-07T20:04:05;1.83;;;1.30;;
75603;SDS011;64187;51.010;13.792;2023-03-07T20:09:05;2.50;;;1.63;;
75603;SDS011;64187;51.010;13.792;2023-03-07T20:14:04;3.45;;;2.00;;
75603;SDS011;64187;51.010;13.792;2023-03-07T20:19:05;2.25;;;1.52;;
75603;SDS011;64187;51.010;13.792;2023-03-07T20:24:06;3.75;;;1.80;;
75603;SDS011;64187;51.010;13.792;2023-03-07T20:29:06;2.00;;;1.52;;
75603;SDS011;64187;51.010;13.792;2023-03-07T20:34:06;3.30;;;1.98;;
75603;SDS011;64187;51.010;13.792;2023-03-07T20:39:06;3.65;;;2.40;;
75603;SDS011;64187;51.010;13.792;2023-03-07T20:44:09;4.80;;;1.83;;
75603;SDS011;64187;51.010;13.792;2023-03-07T20:49:10;3.78;;;1.70;;
75603;SDS011;64187;51.010;13.792;2023-03-07T20:54:12;3.95;;;2.65;;
75603;SDS011;64187;51.010;13.792;2023-03-07T20:59:13;3.75;;;2.30;;
75603;SDS011;64187;51.010;13.792;2023-03-07T21:04:14;3.90;;;2.33;;
75603;SDS011;64187;51.010;13.792;2023-03-07T21:09:16;4.57;;;2.20;;
75603;SDS011;64187;51.010;13.792;2023-03-07T21:14:16;2.80;;;1.40;;
75603;SDS011;64187;51.010;13.792;2023-03-07T21:19:16;2.25;;;0.95;;
75603;SDS011;64187;51.010;13.792;2023-03-07T21:24:15;1.98;;;1.10;;
75603;SDS011;64187;51.010;13.792;2023-03-07T21:29:14;1.77;;;0.93;;
75603;SDS011;64187;51.010;13.792;2023-03-07T21:34:13;2.83;;;1.10;;
75603;SDS011;64187;51.010;13.792;2023-03-07T21:39:12;19.38;;;9.50;;
75603;SDS011;64187;51.010;13.792;2023-03-07T21:44:11;4.05;;;2.08;;
75603;SDS011;64187;51.010;13.792;2023-03-07T21:49:11;2.83;;;1.73;;
75603;SDS011;64187;51.010;13.792;2023-03-07T21:54:10;2.65;;;1.17;;
75603;SDS011;64187;51.010;13.792;2023-03-07T21:59:09;2.33;;;1.30;;
75603;SDS011;64187;51.010;13.792;2023-03-07T22:04:08;2.63;;;1.73;;
75603;SDS011;64187;51.010;13.792;2023-03-07T22:09:06;3.25;;;2.13;;
75603;SDS011;64187;51.010;13.792;2023-03-07T22:14:05;2.83;;;1.60;;
75603;SDS011;64187;51.010;13.792;2023-03-07T22:19:04;2.50;;;1.45;;
75603;SDS011;64187;51.010;13.792;2023-03-07T22:24:03;3.85;;;1.85;;
75603;SDS011;64187;51.010;13.792;2023-03-07T22:29:03;3.80;;;2.10;;
75603;SDS011;64187;51.010;13.792;2023-03-07T22:34:02;3.17;;;1.60;;
75603;SDS011;64187;51.010;13.792;2023-03-07T22:39:01;3.00;;;2.00;;
75603;SDS011;64187;51.010;13.792;2023-03-07T22:43:59;3.70;;;2.08;;
75603;SDS011;64187;51.010;13.792;2023-03-07T22:48:58;3.30;;;1.98;;
75603;SDS011;64187;51.010;13.792;2023-03-07T22:53:57;4.68;;;2.05;;
75603;SDS011;64187;51.010;13.792;2023-03-07T22:58:56;4.18;;;2.33;;
75603;SDS011;64187;51.010;13.792;2023-03-07T23:03:55;3.45;;;2.05;;
75603;SDS011;64187;51.010;13.792;2023-03-07T23:08:56;4.93;;;2.47;;
75603;SDS011;64187;51.010;13.792;2023-03-07T23:13:57;4.32;;;2.25;;
75603;SDS011;64187;51.010;13.792;2023-03-07T23:18:56;4.22;;;2.38;;
75603;SDS011;64187;51.010;13.792;2023-03-07T23:23:56;4.50;;;2.92;;
75603;SDS011;64187;51.010;13.792;2023-03-07T23:28:56;4.57;;;2.42;;
75603;SDS011;64187;51.010;13.792;2023-03-07T23:33:56;3.25;;;1.85;;
75603;SDS011;64187;51.010;13.792;2023-03-07T23:38:57;5.20;;;1.77;;
75603;SDS011;64187;51.010;13.792;2023-03-07T23:43:57;2.63;;;1.50;;
75603;SDS011;64187;51.010;13.792;2023-03-07T23:48:56;1.92;;;1.10;;
75603;SDS011;64187;51.010;13.792;2023-03-07T23:53:56;2.10;;;1.40;;
75603;SDS011;64187;51.010;13.792;2023-03-07T23:58:55;2.25;;;1.30;;
